Time;durP1;ratioP1;P1;durP2;ratioP2;P2;SDS_P1;SDS_P2;PMS_P1;PMS_P2;Temp;Humidity;BMP_temperature;BMP_pressure;BME280_temperature;BME280_humidity;BME280_pressure;Samples;Min_cycle;Max_cycle;Signal;HPM_P1;HPM_P2
2021/06/25 00:00:19;;;;;;;11.93;7.87;;;;;;;15.39;93.27;101115.63;5093160;28;20216;-68
2021/06/25 00:02:44;;;;;;;11.93;8.20;;;;;;;15.36;93.50;101116.72;5093972;28;20173;-67
2021/06/25 00:05:10;;;;;;;11.47;7.77;;;;;;;15.47;92.68;101126.72;5093425;28;20174;-67
2021/06/25 00:07:36;;;;;;;18.77;8.30;;;;;;;15.59;91.26;101124.06;5110966;28;20213;-68
2021/06/25 00:10:03;;;;;;;11.90;7.37;;;;;;;15.59;90.81;101118.69;5098800;28;20218;-68
2021/06/25 00:12:29;;;;;;;13.97;7.43;;;;;;;15.60;90.63;101122.25;5092487;28;20178;-68
2021/06/25 00:14:54;;;;;;;12.57;9.00;;;;;;;15.63;90.41;101111.31;5092203;28;20504;-68
2021/06/25 00:17:19;;;;;;;10.43;7.87;;;;;;;15.66;90.16;101116.47;5093586;28;20194;-68
2021/06/25 00:19:45;;;;;;;12.27;8.17;;;;;;;15.66;89.82;101111.09;5092255;28;20174;-68
2021/06/25 00:22:11;;;;;;;10.60;8.23;;;;;;;15.67;89.80;101112.81;5092123;28;20281;-68
2021/06/25 00:24:36;;;;;;;12.60;8.07;;;;;;;15.66;89.72;101099.47;5092089;28;20227;-68
2021/06/25 00:27:01;;;;;;;11.50;8.30;;;;;;;15.65;89.81;101101.28;5093691;28;20175;-68
2021/06/25 00:29:26;;;;;;;11.80;7.93;;;;;;;15.68;89.59;101111.84;5091784;28;20256;-68
2021/06/25 00:31:52;;;;;;;13.27;8.53;;;;;;;15.69;89.51;101102.81;5093340;28;20555;-68
2021/06/25 00:34:17;;;;;;;16.37;8.23;;;;;;;15.71;89.43;101092.78;5099664;28;20180;-68
2021/06/25 00:36:43;;;;;;;12.83;7.80;;;;;;;15.67;89.53;101103.88;5098691;28;20178;-68
2021/06/25 00:39:08;;;;;;;11.17;8.20;;;;;;;15.68;89.56;101092.16;5099516;28;20194;-67
2021/06/25 00:41:33;;;;;;;11.40;7.80;;;;;;;15.73;89.06;101080.09;5097486;28;20246;-69
2021/06/25 00:43:58;;;;;;;12.93;8.17;;;;;;;15.72;89.05;101080.19;5101873;28;20178;-68
2021/06/25 00:46:24;;;;;;;10.07;7.37;;;;;;;15.65;88.81;101087.84;5109445;28;20172;-68
2021/06/25 00:48:49;;;;;;;14.23;8.13;;;;;;;15.59;89.65;101077.47;5108237;28;20187;-68
2021/06/25 00:51:17;;;;;;;12.50;8.37;;;;;;;15.53;89.99;101072.50;5103736;28;20174;-68
2021/06/25 00:53:43;;;;;;;12.23;8.23;;;;;;;15.52;89.87;101071.63;5114974;28;20219;-69
2021/06/25 00:56:12;;;;;;;11.07;8.37;;;;;;;15.54;89.40;101063.47;5099368;28;20166;-70
2021/06/25 00:58:38;;;;;;;12.10;8.53;;;;;;;15.49;89.66;101068.31;5080423;28;20612;-68
2021/06/25 01:01:03;;;;;;;11.00;8.43;;;;;;;15.43;89.90;101066.91;5080595;28;20199;-69
2021/06/25 01:03:28;;;;;;;19.47;8.50;;;;;;;15.31;91.15;101071.31;5096941;28;20181;-67
2021/06/25 01:05:54;;;;;;;15.77;9.03;;;;;;;15.17;91.72;101081.28;5100241;28;20170;-68
2021/06/25 01:08:20;;;;;;;16.30;8.83;;;;;;;15.13;91.86;101080.63;5097787;28;20689;-68
2021/06/25 01:10:45;;;;;;;14.17;9.30;;;;;;;15.12;92.03;101080.72;5116373;28;20228;-68
2021/06/25 01:13:12;;;;;;;14.03;9.93;;;;;;;15.07;92.07;101070.28;5098949;28;20576;-68
2021/06/25 01:15:37;;;;;;;14.97;8.80;;;;;;;15.04;92.45;101070.50;5097901;28;20212;-68
2021/06/25 01:18:03;;;;;;;17.70;10.80;;;;;;;15.07;92.64;101069.44;5098125;28;20202;-67
2021/06/25 01:20:30;;;;;;;13.57;10.07;;;;;;;15.03;92.58;101076.84;5097151;28;20177;-69
2021/06/25 01:22:57;;;;;;;11.87;8.63;;;;;;;15.00;92.58;101083.28;5096062;28;20270;-69
2021/06/25 01:25:27;;;;;;;15.70;9.67;;;;;;;14.96;93.35;101083.59;5114624;28;20181;-69
2021/06/25 01:27:58;;;;;;;16.83;9.03;;;;;;;14.98;92.91;101087.06;5098599;28;20186;-68
2021/06/25 01:30:36;;;;;;;18.57;9.87;;;;;;;15.03;92.22;101090.28;5097797;28;20681;-69
2021/06/25 01:33:03;;;;;;;19.67;10.37;;;;;;;15.05;91.80;101092.88;5098971;28;20166;-68
2021/06/25 01:35:28;;;;;;;13.27;9.50;;;;;;;15.08;91.78;101104.28;5084448;28;20550;-68
2021/06/25 01:37:54;;;;;;;11.23;9.60;;;;;;;15.11;92.16;101098.69;5100880;28;20202;-69
2021/06/25 01:40:20;;;;;;;14.40;9.80;;;;;;;15.15;92.04;101102.88;5101463;28;20598;-69
2021/06/25 01:42:46;;;;;;;11.37;9.30;;;;;;;15.18;92.15;101096.44;5100300;28;20253;-69
2021/06/25 01:45:17;;;;;;;15.23;9.57;;;;;;;15.17;92.74;101095.56;5097912;28;20529;-68
2021/06/25 01:47:44;;;;;;;13.67;9.60;;;;;;;15.20;95.44;101091.81;5098636;28;20193;-68
2021/06/25 01:50:12;;;;;;;15.10;10.20;;;;;;;15.27;94.78;101094.00;5100424;28;20162;-68
2021/06/25 01:52:42;;;;;;;14.97;8.70;;;;;;;15.41;94.37;101092.19;5103760;28;20519;-68
2021/06/25 01:55:07;;;;;;;15.30;9.10;;;;;;;15.59;93.55;101093.63;5101043;28;20173;-68
2021/06/25 01:57:33;;;;;;;13.93;8.40;;;;;;;15.58;93.49;101082.00;5100676;28;20573;-69
2021/06/25 01:59:59;;;;;;;14.67;9.20;;;;;;;15.55;93.72;101081.31;5101011;28;20170;-68
2021/06/25 02:02:24;;;;;;;15.27;9.47;;;;;;;15.58;93.29;101081.13;5100749;28;20178;-69
2021/06/25 02:04:49;;;;;;;12.23;8.97;;;;;;;15.55;92.04;101084.00;5100088;28;20174;-69
2021/06/25 02:07:15;;;;;;;11.77;8.63;;;;;;;15.50;91.92;101075.41;5100708;28;20170;-69
2021/06/25 02:09:40;;;;;;;12.13;8.60;;;;;;;15.44;92.60;101075.84;5099444;28;20660;-68
2021/06/25 02:12:06;;;;;;;12.83;9.37;;;;;;;15.47;92.65;101081.00;5080309;28;20219;-67
2021/06/25 02:14:31;;;;;;;19.33;12.57;;;;;;;15.48;92.52;101090.78;5096747;28;20185;-68
2021/06/25 02:16:58;;;;;;;16.80;9.33;;;;;;;15.44;92.08;101079.38;5098104;28;20182;-68
2021/06/25 02:19:23;;;;;;;19.00;11.63;;;;;;;15.44;91.15;101078.53;5099281;28;20190;-69
2021/06/25 02:21:49;;;;;;;18.93;13.53;;;;;;;15.44;90.69;101073.16;5100219;28;20170;-69
2021/06/25 02:24:14;;;;;;;16.77;11.73;;;;;;;15.43;89.49;101071.44;5099482;28;20705;-68
2021/06/25 02:26:40;;;;;;;16.70;11.03;;;;;;;15.45;89.94;101069.50;5096604;28;20185;-68
2021/06/25 02:29:05;;;;;;;18.00;11.90;;;;;;;15.45;89.78;101075.72;5098555;28;20277;-69
2021/06/25 02:31:30;;;;;;;17.70;10.80;;;;;;;15.42;90.05;101058.94;5099874;28;20174;-69
2021/06/25 02:33:56;;;;;;;18.17;9.40;;;;;;;15.47;90.12;101057.66;5098295;28;20630;-68
2021/06/25 02:36:21;;;;;;;11.80;7.23;;;;;;;15.48;89.72;101045.94;5097476;28;20241;-68
2021/06/25 02:38:46;;;;;;;17.90;8.70;;;;;;;15.25;91.07;101047.53;5078212;28;20209;-68
2021/06/25 02:41:11;;;;;;;15.60;8.40;;;;;;;15.17;91.42;101041.81;5096983;28;20228;-69
2021/06/25 02:43:38;;;;;;;17.47;8.27;;;;;;;15.07;91.91;101040.72;5078744;28;20554;-68
2021/06/25 02:46:03;;;;;;;22.10;8.80;;;;;;;14.98;92.05;101026.09;5110636;28;20210;-68
2021/06/25 02:48:28;;;;;;;13.30;8.23;;;;;;;14.82;93.68;101030.75;5093751;28;20723;-68
2021/06/25 02:50:54;;;;;;;18.03;8.53;;;;;;;14.76;94.21;101023.13;5094934;28;20632;-68
2021/06/25 02:53:19;;;;;;;17.70;8.83;;;;;;;14.69;93.99;101028.06;5093380;28;20212;-68
2021/06/25 02:55:50;;;;;;;21.83;9.43;;;;;;;14.52;95.29;101031.00;5094152;28;20182;-68
2021/06/25 02:58:23;;;;;;;21.40;9.70;;;;;;;14.53;95.74;101024.69;5093292;28;20735;-68
2021/06/25 03:00:49;;;;;;;18.50;9.87;;;;;;;14.47;96.20;101018.81;5093394;28;20174;-68
2021/06/25 03:03:15;;;;;;;20.33;9.93;;;;;;;14.54;95.97;101002.22;5110245;28;20631;-68
2021/06/25 03:05:40;;;;;;;16.60;9.77;;;;;;;14.55;95.51;101001.25;5093495;28;20207;-68
2021/06/25 03:08:06;;;;;;;17.83;9.67;;;;;;;14.62;95.12;101002.56;5093158;28;20289;-69
2021/06/25 03:10:31;;;;;;;27.17;10.90;;;;;;;14.57;94.65;101001.16;5093933;28;20186;-68
2021/06/25 03:12:56;;;;;;;28.37;10.53;;;;;;;14.65;94.20;101012.25;5094888;28;20201;-68
2021/06/25 03:15:22;;;;;;;16.70;10.43;;;;;;;14.58;94.21;100995.69;5094761;28;20174;-68
2021/06/25 03:17:47;;;;;;;21.27;10.37;;;;;;;14.66;93.69;100998.72;5094225;28;20202;-68
2021/06/25 03:20:13;;;;;;;19.27;10.50;;;;;;;14.73;93.59;100992.91;5093187;28;20209;-69
2021/06/25 03:22:38;;;;;;;21.73;10.00;;;;;;;14.71;94.71;100990.34;5094633;28;20185;-68
2021/06/25 03:25:05;;;;;;;17.13;10.63;;;;;;;14.70;95.25;100988.63;5102342;28;20178;-68
2021/06/25 03:27:30;;;;;;;15.33;9.57;;;;;;;14.70;94.65;100992.16;5104938;28;20186;-68
2021/06/25 03:29:56;;;;;;;15.77;9.53;;;;;;;14.81;93.05;100987.88;5097535;28;20162;-68
2021/06/25 03:32:21;;;;;;;15.77;9.67;;;;;;;14.87;91.37;100987.50;5094611;28;20166;-68
2021/06/25 03:34:46;;;;;;;15.23;10.03;;;;;;;15.02;89.84;100983.72;5094070;28;20177;-68
2021/06/25 03:37:12;;;;;;;21.60;14.63;;;;;;;15.15;88.76;100987.28;5094172;28;20194;-67
2021/06/25 03:39:37;;;;;;;15.13;9.33;;;;;;;15.21;88.32;100981.47;5092802;28;20232;-68
2021/06/25 03:42:03;;;;;;;18.70;9.77;;;;;;;15.36;87.53;100992.16;5093881;28;20181;-67
2021/06/25 03:44:28;;;;;;;18.83;9.23;;;;;;;15.41;86.29;100992.69;5092427;28;20205;-68
2021/06/25 03:46:53;;;;;;;17.23;8.70;;;;;;;15.37;87.10;100997.41;5094320;28;20174;-67
2021/06/25 03:49:19;;;;;;;12.47;8.50;;;;;;;15.44;87.40;101001.38;5092527;28;20194;-68
2021/06/25 03:51:44;;;;;;;14.53;9.00;;;;;;;15.35;87.95;101001.19;5093852;28;20236;-68
2021/06/25 03:54:09;;;;;;;17.03;8.53;;;;;;;15.43;87.88;101001.50;5093781;28;20170;-68
2021/06/25 03:56:35;;;;;;;16.20;8.57;;;;;;;15.39;88.36;101016.13;5092663;28;20174;-67
2021/06/25 03:59:00;;;;;;;23.20;9.27;;;;;;;15.40;88.78;101005.25;5093750;28;20214;-68
2021/06/25 04:01:25;;;;;;;22.77;9.33;;;;;;;15.41;88.15;101009.69;5092494;28;20522;-68
2021/06/25 04:03:51;;;;;;;24.50;8.87;;;;;;;15.50;87.51;101009.03;5093890;28;20166;-68
2021/06/25 04:06:16;;;;;;;19.40;7.80;;;;;;;15.45;87.39;101013.00;5095147;28;20178;-68
2021/06/25 04:08:42;;;;;;;13.67;7.83;;;;;;;15.38;87.57;101014.41;5115962;22;20218;-69
2021/06/25 04:11:07;;;;;;;13.90;8.57;;;;;;;15.42;87.55;101021.28;5075091;28;20210;-69
2021/06/25 04:13:34;;;;;;;10.43;8.17;;;;;;;15.43;86.63;101029.25;5093454;28;20685;-69
2021/06/25 04:15:59;;;;;;;13.03;7.63;;;;;;;15.50;86.57;101025.16;5075012;28;20173;-69
2021/06/25 04:18:25;;;;;;;23.27;8.27;;;;;;;15.64;86.79;101024.25;5075605;28;20205;-69
2021/06/25 04:20:52;;;;;;;12.80;7.93;;;;;;;15.65;87.53;101020.56;5092640;28;20276;-68
2021/06/25 04:23:17;;;;;;;17.17;8.10;;;;;;;15.76;86.00;101020.66;5092615;28;20166;-69
2021/06/25 04:25:43;;;;;;;10.57;7.77;;;;;;;15.79;84.49;101031.22;5091693;28;20657;-69
2021/06/25 04:28:08;;;;;;;18.17;8.60;;;;;;;15.75;84.86;101028.84;5091728;28;20280;-68
2021/06/25 04:30:37;;;;;;;16.60;8.23;;;;;;;15.85;83.76;101037.97;5091783;28;20201;-68
2021/06/25 04:33:02;;;;;;;14.17;8.97;;;;;;;15.87;83.17;101033.34;5091667;28;20177;-68
2021/06/25 04:35:29;;;;;;;17.63;10.33;;;;;;;15.84;83.59;101038.94;5091752;28;20163;-69
2021/06/25 04:37:54;;;;;;;17.37;9.13;;;;;;;15.84;83.04;101045.19;5091730;28;20616;-69
2021/06/25 04:40:20;;;;;;;15.07;8.10;;;;;;;15.85;83.92;101046.91;5093917;28;20166;-69
2021/06/25 04:42:46;;;;;;;13.43;7.87;;;;;;;15.86;83.88;101039.69;5093164;28;20205;-69
2021/06/25 04:45:13;;;;;;;21.30;9.80;;;;;;;15.72;85.66;101040.69;5092622;28;20199;-69
2021/06/25 04:47:43;;;;;;;12.17;9.30;;;;;;;15.61;85.51;101040.59;5092893;28;20223;-69
2021/06/25 04:50:08;;;;;;;13.07;7.87;;;;;;;15.59;86.64;101034.44;5091657;28;20170;-69
2021/06/25 04:52:33;;;;;;;14.53;8.47;;;;;;;15.66;85.82;101034.88;5091509;28;20172;-69
2021/06/25 04:54:59;;;;;;;13.03;8.23;;;;;;;15.69;85.37;101040.91;5092000;28;20200;-69
2021/06/25 04:57:24;;;;;;;13.23;8.93;;;;;;;15.61;86.39;101040.59;5091775;28;20281;-69
2021/06/25 04:59:49;;;;;;;13.13;8.97;;;;;;;15.57;87.31;101036.34;5091441;28;20190;-69
2021/06/25 05:02:15;;;;;;;13.10;8.77;;;;;;;15.74;86.27;101045.97;5091465;28;20224;-69
2021/06/25 05:04:40;;;;;;;21.87;11.57;;;;;;;15.94;83.80;101048.94;5091726;28;20175;-69
2021/06/25 05:07:06;;;;;;;18.07;11.27;;;;;;;16.13;82.98;101044.94;5093541;28;20531;-69
2021/06/25 05:09:31;;;;;;;18.17;10.30;;;;;;;16.27;82.45;101052.84;5093033;28;20643;-70
2021/06/25 05:11:56;;;;;;;14.37;10.80;;;;;;;16.28;82.11;101057.25;5093176;28;20178;-69
2021/06/25 05:14:21;;;;;;;17.77;9.83;;;;;;;16.37;82.64;101042.28;5074367;28;20216;-68
2021/06/25 05:16:47;;;;;;;20.57;12.37;;;;;;;16.40;82.44;101042.06;5091788;28;20178;-70
2021/06/25 05:19:12;;;;;;;21.83;10.10;;;;;;;16.43;81.89;101045.38;5094172;28;20694;-69
2021/06/25 05:21:37;;;;;;;19.67;10.27;;;;;;;16.35;82.14;101050.44;5078060;28;20182;-69
2021/06/25 05:24:04;;;;;;;20.47;13.37;;;;;;;16.34;82.99;101054.13;5094887;28;20178;-70
2021/06/25 05:26:29;;;;;;;13.37;9.93;;;;;;;16.26;83.20;101053.81;5077839;28;20265;-69
2021/06/25 05:28:54;;;;;;;19.33;11.40;;;;;;;16.13;84.12;101051.19;5094910;28;20194;-69
2021/06/25 05:31:20;;;;;;;13.90;9.80;;;;;;;16.16;84.94;101055.47;5094510;28;20197;-69
2021/06/25 05:33:45;;;;;;;19.77;11.90;;;;;;;16.20;85.07;101051.59;5094831;28;20167;-68
2021/06/25 05:36:10;;;;;;;17.00;10.77;;;;;;;16.29;85.33;101063.50;5094656;28;20198;-69
2021/06/25 05:38:35;;;;;;;15.80;9.20;;;;;;;16.39;84.62;101064.59;5095832;28;20232;-70
2021/06/25 05:41:01;;;;;;;13.33;10.10;;;;;;;16.47;84.35;101057.66;5077730;28;20174;-69
2021/06/25 05:43:26;;;;;;;12.97;9.57;;;;;;;16.53;84.06;101051.81;5094828;28;20177;-70
2021/06/25 05:45:51;;;;;;;14.63;9.03;;;;;;;16.67;82.95;101052.63;5094873;28;20179;-70
2021/06/25 05:48:17;;;;;;;16.20;10.33;;;;;;;16.76;82.47;101054.66;5095768;28;20665;-70
2021/06/25 05:50:42;;;;;;;12.23;9.27;;;;;;;16.72;82.91;101054.00;5094412;28;20186;-70
2021/06/25 05:53:08;;;;;;;15.97;9.40;;;;;;;16.73;82.48;101058.44;5094490;28;20174;-70
2021/06/25 05:55:33;;;;;;;20.63;9.33;;;;;;;16.76;83.52;101049.25;5094437;28;20170;-71
2021/06/25 05:57:58;;;;;;;16.50;9.57;;;;;;;16.76;83.73;101046.56;5094348;28;20199;-71
2021/06/25 06:00:24;;;;;;;16.90;9.57;;;;;;;16.76;83.28;101044.72;5094359;28;20706;-71
2021/06/25 06:02:49;;;;;;;17.20;9.77;;;;;;;16.79;83.76;101043.66;5094406;28;20195;-70
2021/06/25 06:05:14;;;;;;;18.20;9.67;;;;;;;16.74;83.22;101048.53;5094215;28;20220;-70
2021/06/25 06:07:40;;;;;;;17.57;9.40;;;;;;;16.88;83.05;101053.72;5094607;28;20163;-69
2021/06/25 06:10:09;;;;;;;14.60;8.27;;;;;;;16.91;82.87;101047.22;5094176;28;20182;-69
2021/06/25 06:12:34;;;;;;;15.50;9.27;;;;;;;16.97;81.77;101055.72;5077549;28;20666;-69
2021/06/25 06:14:59;;;;;;;11.67;8.23;;;;;;;16.98;81.19;101056.56;5094258;28;20257;-69
2021/06/25 06:17:25;;;;;;;11.63;7.70;;;;;;;17.09;79.42;101053.91;5094362;28;20202;-70
2021/06/25 06:19:54;;;;;;;13.40;8.07;;;;;;;17.11;79.75;101055.53;5093981;28;20198;-70
2021/06/25 06:33:34;;;;;;;13.10;8.50;;;;;;;17.92;75.08;101048.34;5094920;28;20249;-69
2021/06/25 06:36:00;;;;;;;13.30;8.57;;;;;;;18.04;75.65;101053.59;5094084;28;20162;-69
2021/06/25 06:38:28;;;;;;;12.10;7.93;;;;;;;18.54;73.80;101045.88;5093868;28;20209;-68
2021/06/25 06:40:53;;;;;;;14.70;7.70;;;;;;;18.78;72.60;101051.13;5093894;28;20216;-69
2021/06/25 06:43:19;;;;;;;16.03;9.23;;;;;;;18.87;70.63;101053.06;5093958;28;20170;-69
2021/06/25 06:45:44;;;;;;;12.73;8.43;;;;;;;18.71;69.73;101050.81;5093877;28;20236;-70
2021/06/25 06:48:10;;;;;;;14.63;8.13;;;;;;;18.45;71.04;101043.97;5095162;28;20186;-71
2021/06/25 06:50:35;;;;;;;14.30;9.50;;;;;;;18.26;71.60;101054.56;5093650;28;20178;-70
2021/06/25 06:53:00;;;;;;;12.87;8.97;;;;;;;18.12;72.51;101053.84;5093120;28;20170;-70
2021/06/25 06:55:26;;;;;;;14.30;9.50;;;;;;;18.34;71.43;101061.06;5093331;28;20171;-69
2021/06/25 06:57:51;;;;;;;13.90;8.37;;;;;;;18.56;71.27;101062.84;5076159;28;20209;-68
2021/06/25 07:00:17;;;;;;;13.63;9.47;;;;;;;18.73;68.76;101075.00;5094407;28;20170;-68
2021/06/25 07:02:43;;;;;;;12.20;8.97;;;;;;;18.80;68.57;101072.66;5093106;28;20178;-69
2021/06/25 07:05:10;;;;;;;13.30;8.40;;;;;;;18.85;68.76;101073.13;5093123;28;20170;-67
2021/06/25 07:07:35;;;;;;;13.50;8.30;;;;;;;18.83;68.68;101073.25;5093219;28;20174;-70
2021/06/25 07:10:01;;;;;;;11.13;7.73;;;;;;;18.80;66.88;101073.50;5092997;28;20228;-67
2021/06/25 07:12:27;;;;;;;10.27;7.03;;;;;;;18.94;66.28;101073.19;5093195;28;20547;-68
2021/06/25 07:14:52;;;;;;;9.47;7.97;;;;;;;19.08;65.45;101063.94;5092876;28;20165;-68
2021/06/25 07:17:17;;;;;;;8.87;6.97;;;;;;;18.93;66.21;101073.31;5093975;28;20194;-71
2021/06/25 07:19:43;;;;;;;9.43;7.70;;;;;;;19.07;65.35;101066.78;5093479;28;20201;-68
2021/06/25 07:22:08;;;;;;;14.27;8.10;;;;;;;19.09;65.43;101076.47;5093603;28;20242;-71
2021/06/25 07:24:33;;;;;;;13.90;7.53;;;;;;;18.94;65.89;101078.59;5093597;28;20232;-68
2021/06/25 07:26:58;;;;;;;10.43;7.37;;;;;;;18.67;66.76;101081.78;5093578;28;20174;-69
2021/06/25 07:29:24;;;;;;;13.47;8.13;;;;;;;18.45;67.86;101076.38;5093993;28;20689;-69
2021/06/25 07:31:49;;;;;;;10.43;8.23;;;;;;;18.31;67.88;101074.81;5093951;28;20257;-67
2021/06/25 07:34:15;;;;;;;11.53;7.30;;;;;;;18.44;67.66;101075.53;5092867;28;20174;-69
2021/06/25 07:36:40;;;;;;;12.13;8.30;;;;;;;18.68;67.26;101082.66;5093025;28;20177;-66
2021/06/25 07:39:09;;;;;;;11.40;8.07;;;;;;;18.78;66.87;101077.31;5092324;28;20273;-69
2021/06/25 07:41:35;;;;;;;9.77;7.77;;;;;;;18.98;66.91;101080.09;5091859;28;20580;-69
2021/06/25 07:44:00;;;;;;;10.43;7.83;;;;;;;19.31;63.91;101075.47;5092765;28;20162;-69
2021/06/25 07:46:26;;;;;;;10.90;7.17;;;;;;;19.54;61.82;101073.53;5093487;28;20170;-67
2021/06/25 07:48:51;;;;;;;9.20;6.70;;;;;;;19.83;61.47;101073.72;5092519;28;20272;-69
2021/06/25 07:51:16;;;;;;;10.63;6.80;;;;;;;20.17;60.21;101072.44;5093740;28;20224;-69
2021/06/25 07:53:42;;;;;;;12.60;9.50;;;;;;;19.79;59.65;101075.84;5092029;28;20223;-69
2021/06/25 07:56:07;;;;;;;10.67;8.07;;;;;;;19.92;59.73;101070.19;5092292;28;20224;-68
2021/06/25 07:58:33;;;;;;;8.80;7.33;;;;;;;20.05;58.06;101070.81;5092378;28;20213;-69
2021/06/25 08:00:58;;;;;;;12.63;7.53;;;;;;;19.97;57.66;101060.66;5092246;28;20219;-69
2021/06/25 08:03:23;;;;;;;9.63;6.57;;;;;;;19.92;58.72;101065.63;5092596;28;20250;-70
2021/06/25 08:05:49;;;;;;;10.83;7.23;;;;;;;19.76;59.19;101061.72;5094582;28;20512;-70
2021/06/25 08:08:14;;;;;;;9.30;6.80;;;;;;;19.55;61.57;101065.28;5093168;28;20210;-69
2021/06/25 08:10:39;;;;;;;10.23;6.80;;;;;;;19.54;61.04;101065.41;5091561;28;20176;-68
2021/06/25 08:13:05;;;;;;;10.37;7.63;;;;;;;19.40;61.57;101063.88;5092185;28;20180;-69
2021/06/25 08:15:30;;;;;;;9.73;6.80;;;;;;;19.21;62.25;101066.44;5091970;28;20581;-68
2021/06/25 08:17:56;;;;;;;9.63;7.50;;;;;;;19.08;63.86;101068.47;5091427;28;20665;-68
2021/06/25 08:20:21;;;;;;;9.60;7.13;;;;;;;18.95;65.05;101069.50;5091483;28;20269;-69
2021/06/25 08:22:47;;;;;;;11.37;8.30;;;;;;;18.87;63.95;101065.72;5092766;28;20166;-68
2021/06/25 08:25:12;;;;;;;12.27;9.60;;;;;;;19.08;62.90;101058.53;5094494;28;20196;-68
2021/06/25 08:27:37;;;;;;;16.50;9.20;;;;;;;19.60;61.64;101054.91;5094170;28;20170;-68
2021/06/25 08:30:04;;;;;;;11.83;6.90;;;;;;;19.88;61.43;101064.19;5092875;28;20186;-69
2021/06/25 08:32:30;;;;;;;8.43;6.53;;;;;;;20.27;54.14;101051.63;5091457;28;20174;-69
2021/06/25 08:34:56;;;;;;;10.77;8.37;;;;;;;20.74;55.64;101059.19;5091610;28;20170;-70
2021/06/25 08:37:21;;;;;;;10.73;6.43;;;;;;;21.20;55.13;101063.94;5092988;28;20243;-69
2021/06/25 08:39:46;;;;;;;13.23;7.87;;;;;;;21.16;55.66;101065.19;5091382;28;20190;-69
2021/06/25 08:42:13;;;;;;;26.17;21.93;;;;;;;20.73;56.69;101061.03;5091342;28;20181;-71
2021/06/25 08:44:39;;;;;;;11.40;8.50;;;;;;;20.35;56.84;101052.81;5091732;28;20192;-69
2021/06/25 08:47:06;;;;;;;12.33;7.90;;;;;;;20.07;58.27;101051.69;5091369;28;20247;-68
2021/06/25 08:49:34;;;;;;;11.50;7.43;;;;;;;20.38;59.39;101056.09;5074364;28;20225;-69
2021/06/25 08:52:00;;;;;;;8.83;6.43;;;;;;;20.57;57.03;101052.59;5091370;28;20166;-69
2021/06/25 08:54:25;;;;;;;17.33;10.83;;;;;;;20.36;57.92;101043.66;5094501;28;20193;-69
2021/06/25 08:56:51;;;;;;;13.07;9.40;;;;;;;20.08;58.33;101054.31;5078397;28;20546;-69
2021/06/25 08:59:19;;;;;;;9.53;6.90;;;;;;;19.90;59.39;101045.09;5094937;28;20289;-69
2021/06/25 09:01:50;;;;;;;8.07;6.27;;;;;;;19.71;59.42;101036.88;5094765;28;20178;-69
2021/06/25 09:04:38;;;;;;;9.60;5.73;;;;;;;19.35;60.71;101052.59;5095159;28;20627;-68
2021/06/25 09:07:05;;;;;;;11.53;6.47;;;;;;;19.36;60.93;101052.47;5095843;28;20150;-69
2021/06/25 09:09:46;;;;;;;10.80;6.70;;;;;;;19.61;60.61;101056.63;5096265;28;20598;-69
2021/06/25 09:12:22;;;;;;;10.57;7.60;;;;;;;19.77;56.29;101055.31;5094992;28;20230;-70
2021/06/25 09:15:05;;;;;;;8.63;6.03;;;;;;;20.17;55.83;101048.06;5078223;28;20173;-70
2021/06/25 09:17:31;;;;;;;9.90;5.60;;;;;;;20.18;55.14;101055.19;5096652;28;20178;-69
2021/06/25 09:19:57;;;;;;;7.50;5.60;;;;;;;20.20;54.59;101057.75;5077768;28;20190;-70
2021/06/25 09:22:23;;;;;;;5.47;4.30;;;;;;;19.89;54.34;101060.47;5094960;28;20534;-70
2021/06/25 09:25:06;;;;;;;5.80;4.53;;;;;;;19.91;54.96;101053.06;5095373;28;20170;-68
2021/06/25 09:27:32;;;;;;;5.23;3.93;;;;;;;20.09;53.48;101057.88;5078508;28;20167;-71
2021/06/25 09:29:57;;;;;;;5.00;4.30;;;;;;;19.97;53.64;101059.78;5095940;28;20186;-69
2021/06/25 09:32:34;;;;;;;6.03;3.10;;;;;;;19.92;54.71;101057.50;5096430;28;20177;-73
2021/06/25 09:35:11;;;;;;;8.77;6.77;;;;;;;20.07;53.18;101057.13;5096667;28;20219;-68
2021/06/25 09:37:43;;;;;;;6.57;3.30;;;;;;;20.30;51.48;101058.63;5095226;28;20272;-68
2021/06/25 09:40:09;;;;;;;6.90;3.60;;;;;;;20.69;50.43;101065.03;5096583;28;20170;-68
2021/06/25 09:42:34;;;;;;;5.53;3.37;;;;;;;20.90;50.97;101067.63;5095928;28;20625;-71
2021/06/25 09:45:02;;;;;;;4.20;2.70;;;;;;;21.27;50.09;101056.09;5096452;28;20660;-70
2021/06/25 09:47:33;;;;;;;3.30;2.57;;;;;;;21.27;50.08;101053.38;5077932;28;20648;-69
2021/06/25 09:50:08;;;;;;;3.00;2.70;;;;;;;20.96;48.98;101058.06;5096360;28;20281;-71
2021/06/25 09:53:05;;;;;;;5.37;3.07;;;;;;;20.81;49.08;101057.63;5096921;28;20174;-71
2021/06/25 09:55:54;;;;;;;2.87;2.00;;;;;;;21.33;47.47;101058.22;5094807;28;20154;-70
2021/06/25 09:58:37;;;;;;;5.40;2.90;;;;;;;21.49;45.66;101058.47;5094363;28;20202;-70
2021/06/25 10:03:57;;;;;;;2.43;2.00;;;;;;;21.66;47.69;101046.84;5095204;28;20196;-71
2021/06/25 10:06:24;;;;;;;4.67;2.83;;;;;;;21.48;48.63;101067.63;5093967;28;20331;-70
2021/06/25 10:08:50;;;;;;;2.33;2.00;;;;;;;21.25;47.92;101066.25;5095489;28;20227;-70
2021/06/25 10:11:19;;;;;;;4.83;2.80;;;;;;;21.24;48.13;101072.66;5094264;28;20604;-68
2021/06/25 10:13:46;;;;;;;7.13;4.07;;;;;;;21.36;48.69;101066.94;5077410;28;20175;-69
2021/06/25 10:16:11;;;;;;;6.30;4.73;;;;;;;21.87;48.04;101060.22;5094141;28;20367;-71
2021/06/25 10:18:42;;;;;;;3.50;2.77;;;;;;;22.23;44.72;101063.09;5095045;28;20289;-71
2021/06/25 10:21:10;;;;;;;3.77;3.03;;;;;;;21.54;46.52;101064.31;5095418;28;20296;-70
2021/06/25 10:23:37;;;;;;;2.60;2.13;;;;;;;21.60;46.56;101060.19;5095011;28;20174;-71
2021/06/25 10:26:07;;;;;;;3.07;1.67;;;;;;;21.73;45.54;101072.44;5095330;28;20527;-68
2021/06/25 10:28:33;;;;;;;2.33;1.50;;;;;;;21.75;46.37;101075.00;5094834;28;20189;-70
2021/06/25 10:30:59;;;;;;;3.97;2.70;;;;;;;22.27;45.42;101076.25;5093999;28;20171;-69
2021/06/25 10:33:24;;;;;;;4.67;1.80;;;;;;;22.66;44.97;101065.97;5093821;28;20185;-69
2021/06/25 10:35:49;;;;;;;2.67;1.70;;;;;;;22.53;44.33;101076.38;5093493;28;20182;-69
2021/06/25 10:38:16;;;;;;;6.63;4.90;;;;;;;23.39;41.65;101074.88;5093662;28;20241;-69
2021/06/25 10:40:56;;;;;;;1.43;1.20;;;;;;;23.34;40.77;101071.75;5093557;28;20240;-69
2021/06/25 10:43:38;;;;;;;2.77;2.30;;;;;;;23.12;41.96;101072.28;5076964;28;20169;-70
2021/06/25 10:46:04;;;;;;;2.77;1.70;;;;;;;23.21;41.84;101068.59;5076849;28;20178;-70
2021/06/25 10:48:39;;;;;;;1.77;1.40;;;;;;;23.22;42.05;101069.47;5093688;28;20182;-69
2021/06/25 10:51:20;;;;;;;2.20;1.27;;;;;;;22.81;42.14;101085.41;5093656;28;20208;-70
2021/06/25 10:54:05;;;;;;;1.37;1.13;;;;;;;22.32;44.24;101078.53;5093646;28;20165;-69
2021/06/25 10:56:31;;;;;;;1.23;1.10;;;;;;;23.32;41.62;101084.69;5094653;28;20227;-70
2021/06/25 10:59:20;;;;;;;5.60;2.00;;;;;;;23.35;42.54;101073.47;5093412;28;20213;-72
2021/06/25 11:01:50;;;;;;;1.43;1.10;;;;;;;21.33;46.09;101086.22;5093411;28;20174;-69
2021/06/25 11:04:42;;;;;;;2.80;1.40;;;;;;;22.83;42.49;101085.25;5093487;28;20193;-70
2021/06/25 11:07:42;;;;;;;3.37;2.10;;;;;;;22.70;43.16;101083.75;5090585;28;20260;-69
2021/06/25 11:10:08;;;;;;;4.10;2.20;;;;;;;22.49;44.12;101091.31;5083286;28;20190;-71
2021/06/25 11:12:36;;;;;;;4.47;2.47;;;;;;;22.73;43.61;101086.16;5093111;28;20706;-70
2021/06/25 11:15:04;;;;;;;3.93;2.20;;;;;;;23.95;41.85;101087.22;5078585;28;20205;-71
2021/06/25 11:17:51;;;;;;;4.63;1.70;;;;;;;25.35;38.32;101092.97;5096509;28;20198;-68
2021/06/25 11:20:29;;;;;;;1.93;1.40;;;;;;;25.91;36.52;101091.22;5095248;28;20174;-70
2021/06/25 11:23:01;;;;;;;4.20;2.77;;;;;;;26.90;35.34;101084.31;5093776;28;20182;-69
2021/06/25 11:25:38;;;;;;;9.30;6.03;;;;;;;28.39;31.58;101098.25;5094153;28;20178;-68
2021/06/25 11:28:27;;;;;;;3.63;2.00;;;;;;;27.12;33.32;101080.75;5076435;28;20600;-70
2021/06/25 11:31:14;;;;;;;3.53;1.73;;;;;;;25.28;35.49;101085.66;5076884;28;20182;-69
2021/06/25 11:33:42;;;;;;;4.37;2.70;;;;;;;25.31;36.08;101090.78;5094756;28;20177;-70